福島空港の過去48時間の天気

福島空港 (Fukushima)

現在時刻: 4/27 13:59 JST (4/27 04:59 UTC) 以下の時間は現地時間です。

過去48時間のMETAR気象情報
時間 風向 風速(m/s) 視程 気温(℃) 湿度(%) 気圧(hPa) 天気現象
27 13:00 西南西 5 10km以上 20 26 1008
27 12:00 南南西 6 10km以上 20 26 1009
27 11:00 南南西 5 10km以上 20 28 1010
27 10:00 南西 5 10km以上 19 35 1011
27 09:00 4 10km以上 18 49 1011
27 08:00 3 10km以上 17 52 1012
27 07:00 南南東 3 10km以上 15 100 1012
27 06:40 南南東 4 10km以上 14 100 1012
26 20:00 4 10km以上 12 58 1013
26 19:00 3 10km以上 13 54 1013
26 18:00 北北東 4 10km以上 14 51 1012
26 17:00 5 10km以上 16 45 1012
26 16:00 北北西 6 10km以上 17 42 1012
26 15:00 北西 5 10km以上 17 39 1011
26 14:00 北西 5 10km以上 17 42 1011
26 13:00 北西 6 10km以上 16 48 1011
26 12:00 8 10km以上 15 48 1011
26 11:00 7 10km以上 13 58 1011
26 10:00 8 10km以上 12 62 1011
26 09:00 北北西 9 10km以上 11 100 1010
26 08:00 北北西 5 10km以上 10 100 1009
26 07:00 北北西 8 10km以上 10 100 1009
26 06:40 北北西 7 10km以上 10 100 1008
25 20:00 8 10km以上 14 100 1002
25 19:00 6 10km以上 14 100 1001
25 18:00 6 10km以上 15 100 1000
25 17:00 6 10km以上 15 100 999
25 16:00 5 10km以上 14 100 999
25 15:31 6 10km以上 13 100 999
25 15:00 北北東 5 2,500m 13 100 999 散在した霧 もや
25 14:00 7 900m 12 100 999 弱いしゅう雨 霧
RJSF 270400Z 24009KT 9999 FEW040 SCT070 BKN/// 20/M00 Q1008
RJSF 270300Z 21011KT 190V250 9999 FEW040 SCT070 BKN/// 20/M00 Q1009
RJSF 270200Z 20010KT 170V240 9999 FEW050 SCT070 BKN/// 20/01 Q1010
RJSF 270100Z 22010KT 190V250 CAVOK 19/03 Q1011
RJSF 270000Z 18007KT 160V230 9999 FEW050 SCT070 BKN/// 18/07 Q1011
RJSF 262300Z 17006KT 140V200 9999 FEW050 SCT120 BKN/// 17/07 Q1012
RJSF 262200Z 15006KT 9999 FEW050 SCT100 BKN/// 15/15 Q1012
RJSF 262140Z 15007KT 9999 FEW050 SCT100 BKN/// 14/14 Q1012 RMK 2CU050 4AC100 A2991
RJSF 261100Z 01008KT CAVOK 12/04 Q1013
RJSF 261000Z 01006KT CAVOK 13/04 Q1013
RJSF 260900Z 03008KT CAVOK 14/04 Q1012
RJSF 260800Z 35009KT 9999 FEW050 SCT/// 16/04 Q1012
RJSF 260700Z 34012KT 9999 FEW040 17/04 Q1012
RJSF 260600Z 32010KT 9999 FEW040 17/03 Q1011
RJSF 260500Z 31010KT 270V340 9999 FEW040 17/04 Q1011
RJSF 260400Z 31012KT 280V350 9999 FEW040 16/05 Q1011
RJSF 260300Z 35015KT 9999 FEW030 15/04 Q1011
RJSF 260200Z 36014KT 320V030 9999 FEW020 SCT030 13/05 Q1011
RJSF 260100Z 35016KT 9999 FEW020 SCT030 BKN035 12/05 Q1011
RJSF 260000Z 34017KT 9999 FEW020 SCT030 BKN035 11/11 Q1010
RJSF 252300Z 33010KT 290V010 9999 FEW020 SCT025 BKN030 10/10 Q1009
RJSF 252200Z 34015KT 9999 FEW020 SCT025 BKN035 10/10 Q1009
RJSF 252140Z 33014KT 9999 FEW020 SCT025 BKN030 10/10 Q1008 RMK 1CU020 3CU025 6CU030 A2979
RJSF 251100Z 35016KT 9999 FEW005 BKN035 14/14 Q1002
RJSF 251000Z 35012KT 9999 FEW005 SCT035 BKN110 14/14 Q1001
RJSF 250900Z 01012KT 9999 FEW010 SCT030 BKN035 15/15 Q1000
RJSF 250800Z 01012KT 9999 FEW015 SCT035 15/15 Q0999
RJSF 250700Z 01009KT 9999 FEW003 SCT030 14/14 Q0999
RJSF 250631Z 36011KT 9999 FEW001 BKN003 BKN030 13/13 Q0999 RMK 1ST001 5ST003 7CU030 A2951
RJSF 250600Z 02010KT 2500 BCFG BR FEW001 SCT002 BKN015 13/13 Q0999
RJSF 250500Z 36014KT 0900 R01/P1800N -SHRA FG FEW001 BKN002 12/12 Q0999